Weather at Locarno Airport

Public forecast

Using degrees Celsius for public forecast. Weather courtesy of forecast.io.

Current aviation weather report (METAR) for Locarno Airport

Retrieved 2020/09/22 04:20 UTC (20 minutes ago):

LSZL 220420Z AUTO VRB02KT 6000NDV -RA BKN022 BKN026 OVC079 17/17 Q1016 RERA RMK

Closest aviation forecast (TAF) to Locarno Airport

Closest forecast is Malpensa International Airport, 32.4 nm (60.1 km) S. Retrieved 2020-09-22 00:00 UTC (5 hours ago):

TAF LIMC 212300Z 2200/2306 VRB05KT 9999 BKN040 TEMPO 2215/2218 SHRA